Latest Weather Observations for Perth Airport

IDW60901

Issued at 2:21 pm WST Monday 26 January 2015 (issued every 10 minutes, with the page automatically refreshed every 10 minutes)

About weather observations | Map of Perth area stations | Latest observations for Perth area | Other Formats
Station Details ID: 009021 Name: PERTH AIRPORT Lat: -31.93 Lon: 115.98 Height: 15.4 m
Data from the previous 72 hours. | See also: Recent months at Perth Airport
Date/Time
WST
Tmp

°C
App
Tmp
°C
Dew
Point
°C
Rel
Hum
%
Delta-T

°C
Wind Press
QNH
hPa
Press
MSL
hPa
Rain
since
9 am
mm
Dir
 
Spd
km/h
Gust
km/h
Spd
kts
Gust
kts
26/02:00pm 34.3 28.9 6.5 18 15.2 E 24 39 13 21 1009.1 - 0.0
26/01:30pm 34.2 29.6 6.6 18 15.1 SE 20 30 11 16 1009.4 - 0.0
26/01:00pm 33.3 29.0 7.7 20 14.2 E 20 30 11 16 1010.0 - 0.0
26/12:30pm 32.4 27.4 8.1 22 13.5 E 24 35 13 19 1010.5 - 0.0
26/12:00pm 31.5 26.5 7.9 23 13.0 E 24 33 13 18 1010.9 1010.8 0.0
26/11:30am 29.4 24.0 8.0 26 11.7 E 26 35 14 19 1011.4 - 0.0
26/10:30am 27.8 22.1 8.3 29 10.6 E 28 37 15 20 1012.1 - 0.0
26/10:00am 26.0 19.3 8.1 32 9.6 E 33 46 18 25 1012.6 - 0.0
26/09:30am 25.0 17.9 7.9 33 9.1 E 35 46 19 25 1012.9 - 0.0
26/09:00am 23.0 16.8 8.0 38 7.9 E 30 44 16 24 1013.2 1013.1 0.0
26/08:30am 21.7 16.3 8.1 41 7.1 E 26 43 14 23 1013.5 - 0.0
26/08:02am 20.5 14.8 8.2 45 6.4 E 28 46 15 25 1013.7 - 0.0
26/08:00am 20.4 14.7 8.3 45 6.3 E 28 41 15 22 1013.8 - 0.0
26/07:30am 19.5 14.2 8.6 49 5.7 E 26 37 14 20 1014.0 - 0.0
26/07:01am 18.2 12.6 8.8 54 4.9 E 28 48 15 26 1014.1 - 0.0
26/07:00am 18.1 12.8 8.6 54 4.9 E 26 39 14 21 1014.1 - 0.0
26/06:30am 17.2 12.8 8.9 58 4.3 E 22 32 12 17 1014.1 - 0.0
26/06:00am 16.5 13.7 8.7 60 4.0 ENE 13 22 7 12 1014.1 1014.0 0.0
26/05:00am 16.6 13.8 8.6 59 4.1 E 13 26 7 14 1013.8 - 0.0
26/04:30am 16.9 13.3 8.5 57 4.3 SE 17 30 9 16 1013.6 - 0.0
26/03:30am 17.7 13.5 8.1 53 4.9 E 20 35 11 19 1013.9 - 0.0
26/03:00am 18.2 12.4 8.0 51 5.2 E 28 39 15 21 1013.8 1013.7 0.0
26/02:30am 19.1 14.9 7.5 47 5.9 ESE 19 32 10 17 1013.6 - 0.0
26/02:00am 20.0 14.8 7.2 43 6.5 E 24 35 13 19 1013.5 - 0.0
26/01:30am 20.9 16.6 7.0 40 7.1 E 19 30 10 16 1013.6 - 0.0
26/01:00am 21.5 18.6 6.5 37 7.6 SSE 11 20 6 11 1013.5 - 0.0
26/12:30am 22.2 18.5 6.2 35 8.1 SE 15 30 8 16 1013.1 - 0.0
26/12:00am 23.3 17.6 4.8 30 9.2 ESE 24 39 13 21 1013.0 1012.9 0.0
 
Date/Time
WST
Tmp

°C
App
Tmp
°C
Dew
Point
°C
Rel
Hum
%
Delta-T

°C
Wind Press
QNH
hPa
Press
MSL
hPa
Rain
since
9 am
mm
Dir
 
Spd
km/h
Gust
km/h
Spd
kts
Gust
kts
25/11:30pm 24.4 18.9 3.9 26 10.1 SE 22 33 12 18 1013.1 - 0.0
25/11:00pm 25.1 19.7 2.2 22 11.0 SE 20 32 11 17 1013.2 - 0.0
25/10:30pm 25.6 20.1 1.7 21 11.4 SE 20 28 11 15 1013.0 - 0.0
25/10:00pm 24.7 20.1 3.5 25 10.4 ESE 17 28 9 15 1013.2 - 0.0
25/09:30pm 22.3 18.7 5.2 33 8.5 SE 13 19 7 10 1013.1 - 0.0
25/08:30pm 25.5 20.8 5.0 26 10.4 SE 19 22 10 12 1012.6 - 0.0
25/08:00pm 27.1 22.6 4.0 22 11.6 SE 17 20 9 11 1012.3 - 0.0
25/07:30pm 28.9 24.1 2.4 18 13.1 ESE 17 22 9 12 1012.1 - 0.0
25/07:00pm 30.3 24.2 2.5 17 13.9 SE 24 32 13 17 1012.0 - 0.0
25/06:30pm 31.5 25.6 1.8 15 14.8 SE 22 30 12 16 1011.7 - 0.0
25/05:30pm 32.5 25.5 -0.4 12 15.9 SE 26 37 14 20 1011.4 - 0.0
25/05:00pm 32.5 25.9 -0.4 12 15.9 ESE 24 32 13 17 1011.5 - 0.0
25/04:30pm 32.6 26.2 0.7 13 15.7 ESE 24 32 13 17 1011.9 - 0.0
25/04:00pm 32.4 26.2 -0.2 12 15.8 ESE 22 33 12 18 1012.3 - 0.0
25/03:30pm 32.7 26.2 0.5 13 15.8 E 24 32 13 17 1012.6 - 0.0
25/03:00pm 31.6 25.3 1.6 14 14.9 SE 24 35 13 19 1013.1 1013.0 0.0
25/02:30pm 31.5 25.9 1.3 14 14.9 ESE 20 37 11 20 1013.4 - 0.0
25/02:00pm 31.3 25.8 2.0 15 14.6 ESE 20 33 11 18 1013.6 - 0.0
25/01:30pm 30.6 25.8 2.8 17 14.0 ESE 17 28 9 15 1013.9 - 0.0
25/01:00pm 30.7 25.5 5.4 20 13.3 E 22 37 12 20 1014.3 - 0.0
25/12:30pm 29.2 23.4 6.1 23 12.2 E 26 35 14 19 1014.8 - 0.0
25/12:00pm 27.9 22.0 7.6 27 10.9 ESE 28 37 15 20 1015.1 1015.0 0.0
25/11:30am 27.6 22.8 8.8 30 10.3 E 24 37 13 20 1015.4 - 0.0
25/11:00am 26.2 22.2 8.9 33 9.4 E 20 32 11 17 1015.9 - 0.0
25/10:30am 25.2 19.3 9.0 35 8.8 E 30 41 16 22 1016.3 - 0.0
25/10:00am 24.7 18.8 9.2 37 8.4 ENE 30 37 16 20 1016.5 - 0.0
25/09:30am 23.6 19.0 9.6 41 7.6 ENE 24 35 13 19 1016.8 - 0.0
25/09:00am 22.1 16.6 9.2 43 6.9 E 28 39 15 21 1016.7 1016.6 0.0
25/08:30am 21.4 17.1 9.4 46 6.4 E 22 35 12 19 1016.7 - 0.0
25/08:05am 20.5 15.1 9.6 49 5.8 E 28 46 15 25 1016.2 - 0.0
25/08:00am 20.1 14.4 9.8 51 5.5 E 30 43 16 23 1016.2 - 0.0
25/07:41am 19.3 13.9 9.5 53 5.2 E 28 46 15 25 1016.0 - 0.0
25/07:30am 19.1 14.9 9.7 54 5.0 E 22 39 12 21 1016.0 - 0.0
25/07:00am 18.2 16.1 9.9 58 4.4 E 11 28 6 15 1016.1 - 0.0
25/06:30am 17.7 15.3 10.2 61 4.0 E 13 37 7 20 1016.3 - 0.0
25/06:00am 17.1 15.1 10.1 63 3.7 SE 11 19 6 10 1015.9 1015.8 0.0
25/05:30am 17.1 15.5 10.1 63 3.7 E 9 22 5 12 1015.4 - 0.0
25/05:00am 17.4 14.9 9.8 61 4.0 E 13 28 7 15 1015.0 - 0.0
25/04:30am 17.8 15.3 9.8 59 4.2 E 13 28 7 15 1014.7 - 0.0
25/04:00am 18.2 16.5 9.9 58 4.4 SSE 9 20 5 11 1014.3 - 0.0
25/03:30am 18.6 15.9 10.2 58 4.5 ESE 15 28 8 15 1014.2 - 0.0
25/03:00am 19.2 16.8 10.0 55 4.9 SE 13 24 7 13 1013.9 1013.8 0.0
25/02:30am 20.0 15.0 9.5 50 5.6 ESE 26 50 14 27 1013.7 - 0.0
25/02:19am 20.2 14.7 9.3 49 5.8 ESE 28 48 15 26 1013.6 - 0.0
25/02:00am 20.8 17.3 8.9 46 6.3 SE 17 33 9 18 1013.5 - 0.0
25/01:30am 21.6 18.8 8.5 43 6.9 ESE 13 20 7 11 1013.8 - 0.0
25/01:00am 21.5 17.8 7.9 41 7.1 E 17 26 9 14 1014.2 - 0.0
25/12:30am 19.6 18.0 11.6 60 4.4 SSE 11 17 6 9 1014.1 - 0.0
25/12:00am 19.4 16.9 13.6 69 3.3 S 19 22 10 12 1014.1 1014.0 0.0
 
Date/Time
WST
Tmp

°C
App
Tmp
°C
Dew
Point
°C
Rel
Hum
%
Delta-T

°C
Wind Press
QNH
hPa
Press
MSL
hPa
Rain
since
9 am
mm
Dir
 
Spd
km/h
Gust
km/h
Spd
kts
Gust
kts
24/11:30pm 20.4 17.7 13.6 65 3.9 S 20 26 11 14 1014.1 - 0.0
24/11:00pm 20.9 18.4 13.4 62 4.3 S 19 26 10 14 1014.2 - 0.0
24/10:30pm 21.4 17.9 13.4 60 4.6 S 24 28 13 15 1014.2 - 0.0
24/10:00pm 21.9 19.0 13.0 57 5.1 S 20 30 11 16 1014.4 - 0.0
24/09:30pm 22.3 17.8 12.6 54 5.5 S 28 32 15 17 1014.2 - 0.0
24/09:00pm 22.8 17.8 12.2 51 6.0 SSW 30 35 16 19 1014.3 1014.2 0.0
24/08:30pm 23.2 19.8 12.5 51 6.1 SSW 22 30 12 16 1014.0 - 0.0
24/08:00pm 23.3 20.7 13.9 55 5.5 SSW 20 30 11 16 1013.9 - 0.0
24/07:30pm 23.6 20.5 14.5 56 5.4 SSW 24 30 13 16 1013.7 - 0.0
24/07:00pm 24.4 21.3 14.5 54 5.9 SW 24 30 13 16 1013.6 - 0.0
24/06:30pm 25.5 21.8 13.8 48 6.9 SSW 26 33 14 18 1013.4 - 0.0
24/06:00pm 26.5 21.9 13.4 44 7.7 SSW 30 37 16 20 1013.1 1013.0 0.0
24/05:30pm 27.0 21.9 13.0 42 8.2 SW 32 39 17 21 1013.0 - 0.0
24/05:00pm 28.0 23.3 13.1 39 8.8 SW 30 37 16 20 1013.0 - 0.0
24/04:30pm 27.5 23.3 13.5 42 8.3 SW 28 37 15 20 1013.0 - 0.0
24/04:00pm 28.0 23.2 12.8 39 8.9 SW 30 37 16 20 1013.1 - 0.0
24/03:30pm 28.3 22.9 12.3 37 9.3 SW 32 39 17 21 1013.3 - 0.0
24/03:00pm 28.0 23.0 12.1 37 9.2 WSW 30 39 16 21 1013.3 1013.2 0.0
24/02:30pm 27.7 23.3 12.9 40 8.7 W 28 41 15 22 1013.4 - 0.0
24/02:00pm 28.9 24.2 12.0 35 9.8 W 28 35 15 19 1013.6 - 0.0
24/01:30pm 30.0 25.7 9.2 27 11.6 W 22 32 12 17 1013.7 - 0.0
24/01:00pm 29.6 25.2 4.9 21 12.8 SW 17 24 9 13 1014.2 - 0.0
24/12:30pm 28.7 24.7 5.1 22 12.2 SW 15 24 8 13 1014.6 - 0.0
24/12:00pm 28.6 25.7 4.9 22 12.2 S 9 17 5 9 1015.1 1015.0 0.0
24/11:30am 27.3 24.1 6.9 27 10.8 S 13 22 7 12 1015.3 - 0.0
24/11:00am 26.0 22.6 6.1 28 10.3 SE 13 20 7 11 1015.8 - 0.0
24/10:30am 24.9 22.1 7.1 32 9.3 SE 11 19 6 10 1016.1 - 0.0
24/10:00am 24.0 20.2 7.4 34 8.7 SE 17 24 9 13 1016.2 - 0.0
24/09:30am 23.3 21.0 7.6 36 8.2 SSE 9 17 5 9 1016.3 - 0.0
24/09:00am 22.1 19.6 8.4 41 7.2 ESE 11 17 6 9 1016.5 1016.4 0.0
24/08:30am 20.9 17.3 8.2 44 6.6 ESE 17 22 9 12 1016.6 - 0.0
24/08:00am 20.1 16.8 8.1 46 6.2 ESE 15 20 8 11 1016.7 - 0.0
24/07:30am 19.6 15.6 8.4 48 5.8 ESE 19 26 10 14 1016.7 - 0.0
24/07:00am 19.1 16.7 8.5 50 5.5 SE 11 17 6 9 1016.4 - 0.0
24/06:30am 18.3 15.6 9.1 55 4.8 S 13 17 7 9 1015.9 - 0.0
24/06:00am 16.6 13.0 9.7 63 3.6 S 19 24 10 13 1015.6 1015.5 0.0
24/05:30am 16.6 14.3 10.4 67 3.3 S 13 15 7 8 1015.2 - 0.0
24/05:00am 16.9 14.2 10.5 66 3.4 S 15 20 8 11 1014.7 - 0.0
24/04:30am 16.7 13.7 10.5 67 3.3 SSW 17 22 9 12 1014.4 - 0.0
24/04:00am 17.1 14.1 10.5 65 3.5 SW 17 20 9 11 1014.1 - 0.0
24/03:30am 17.2 14.3 10.9 66 3.4 SSW 17 22 9 12 1014.0 - 0.0
24/03:00am 17.2 14.4 11.3 68 3.2 SSW 17 19 9 10 1013.8 1013.7 0.0
24/02:30am 17.5 14.7 11.2 66 3.4 SSW 17 20 9 11 1013.7 - 0.0
24/02:00am 17.6 15.5 11.3 66 3.4 SSW 13 15 7 8 1013.8 - 0.0
24/01:30am 17.7 15.1 12.1 69 3.1 SSW 17 19 9 10 1013.6 - 0.0
24/01:00am 18.1 15.9 12.1 68 3.3 S 15 20 8 11 1013.6 - 0.0
24/12:30am 18.7 15.4 12.8 68 3.3 S 22 28 12 15 1013.6 - 0.0
24/12:00am 19.5 15.9 13.2 67 3.6 S 24 32 13 17 1013.5 1013.4 0.0
 
Date/Time
WST
Tmp

°C
App
Tmp
°C
Dew
Point
°C
Rel
Hum
%
Delta-T

°C
Wind Press
QNH
hPa
Press
MSL
hPa
Rain
since
9 am
mm
Dir
 
Spd
km/h
Gust
km/h
Spd
kts
Gust
kts
23/11:30pm 20.0 17.4 13.9 68 3.5 SSW 20 30 11 16 1013.5 - 0.0
23/11:00pm 20.1 18.0 14.6 70 3.2 SSW 19 26 10 14 1013.5 - 0.0
23/10:30pm 20.2 18.1 15.1 72 3.0 S 20 26 11 14 1013.6 - 0.0
23/10:00pm 20.5 18.5 15.4 72 3.0 SSW 20 24 11 13 1013.7 - 0.0
23/09:30pm 20.8 19.4 15.6 72 3.1 SSW 17 20 9 11 1013.7 - 0.0
23/09:00pm 21.0 19.0 15.4 70 3.3 SSW 20 30 11 16 1013.9 1013.8 0.0
23/08:30pm 21.3 18.2 15.6 70 3.4 SSW 26 32 14 17 1013.6 - 0.0
23/08:00pm 22.1 18.9 14.2 61 4.6 SSW 24 30 13 16 1013.5 - 0.0
23/07:30pm 22.5 18.9 14.1 59 4.9 SW 26 32 14 17 1013.5 - 0.0
23/07:00pm 23.3 19.7 14.3 57 5.3 SW 26 33 14 18 1013.5 - 0.0
23/06:30pm 24.5 21.6 15.0 55 5.7 SW 24 35 13 19 1013.4 - 0.0
23/06:00pm 25.3 21.5 14.8 52 6.3 SW 28 35 15 19 1013.0 1012.9 0.0
23/05:30pm 26.6 23.3 14.0 46 7.5 SW 24 32 13 17 1012.8 - 0.0
23/05:00pm 27.2 23.5 13.9 44 7.9 WSW 26 33 14 18 1012.8 - 0.0
23/04:30pm 28.6 25.0 13.2 38 9.1 WSW 24 33 13 18 1012.6 - 0.0
23/04:00pm 28.4 24.0 12.9 38 9.1 WSW 28 35 15 19 1012.7 - 0.0
23/03:30pm 27.7 23.4 13.1 40 8.6 SW 28 37 15 20 1012.8 - 0.0
23/03:00pm 28.5 24.5 12.9 38 9.2 WSW 26 39 14 21 1013.0 1012.9 0.0
23/02:30pm 29.1 25.1 13.0 37 9.5 WSW 26 33 14 18 1013.0 - 0.0

Latest Capital City Observations: Canberra | Sydney | Melbourne | Brisbane | Adelaide | Perth | Hobart | Darwin

Other Formats:

Comma delimited format used in spreadsheet applications
http://www.bom.gov.au/fwo/IDW60901/IDW60901.94610.axf

JavaScript Object Notation format (JSON) in row-major order
http://www.bom.gov.au/fwo/IDW60901/IDW60901.94610.json